createdAt,value
2023-02-11T00:01:30.543Z,83.83
2023-02-11T00:04:02.978Z,84.06
2023-02-11T00:06:35.681Z,83.86
2023-02-11T00:09:11.834Z,83.87
2023-02-11T00:11:43.534Z,83.60
2023-02-11T00:14:15.221Z,83.85
2023-02-11T00:16:47.090Z,83.87
2023-02-11T00:19:18.827Z,84.29
2023-02-11T00:21:50.566Z,84.50
2023-02-11T00:24:22.264Z,84.18
2023-02-11T00:26:54.034Z,83.99
2023-02-11T00:29:25.833Z,83.94
2023-02-11T00:31:57.690Z,83.73
2023-02-11T00:34:29.498Z,83.34
2023-02-11T00:37:01.213Z,83.16
2023-02-11T00:39:33.470Z,83.17
2023-02-11T00:42:05.194Z,83.19
2023-02-11T00:44:37.002Z,83.29
2023-02-11T00:47:09.437Z,83.22
2023-02-11T00:49:41.748Z,82.86
2023-02-11T00:52:13.560Z,82.96
2023-02-11T00:54:45.281Z,83.15
2023-02-11T00:57:17.086Z,82.75
2023-02-11T00:59:48.907Z,82.63
2023-02-11T01:02:20.631Z,82.27
2023-02-11T01:04:52.406Z,82.01
2023-02-11T01:07:24.080Z,82.08
2023-02-11T01:09:56.225Z,82.25
2023-02-11T01:12:28.067Z,82.24
2023-02-11T01:15:00.097Z,82.14
2023-02-11T01:17:32.336Z,82.05
2023-02-11T01:20:06.899Z,81.89
2023-02-11T01:22:39.562Z,81.91
2023-02-11T01:25:11.859Z,81.60
2023-02-11T01:27:43.832Z,81.34
2023-02-11T01:30:16.370Z,81.53
2023-02-11T01:32:48.271Z,81.69
2023-02-11T01:35:20.179Z,81.66
2023-02-11T01:37:51.927Z,82.04
2023-02-11T01:40:24.063Z,81.81
2023-02-11T01:42:55.882Z,81.63
2023-02-11T01:46:01.012Z,81.90
2023-02-11T01:48:37.181Z,82.04
2023-02-11T01:51:13.785Z,82.13
2023-02-11T01:54:05.306Z,82.00
2023-02-11T01:56:58.011Z,81.87
2023-02-11T01:59:35.988Z,82.31
2023-02-11T02:02:13.013Z,81.72
2023-02-11T02:04:53.723Z,81.35
2023-02-11T02:07:33.363Z,81.24
2023-02-11T02:10:10.423Z,80.96
2023-02-11T02:12:42.232Z,80.68
2023-02-11T02:15:33.034Z,80.73
2023-02-11T02:18:16.761Z,80.86
2023-02-11T02:21:20.133Z,80.52
2023-02-11T02:24:00.640Z,80.34
2023-02-11T02:27:04.827Z,80.44
2023-02-11T02:30:30.781Z,80.68
2023-02-11T02:33:22.337Z,80.60
2023-02-11T02:36:07.124Z,80.77
2023-02-11T02:38:45.093Z,80.80
2023-02-11T02:41:20.117Z,80.49
2023-02-11T02:43:52.707Z,80.42
2023-02-11T02:46:24.866Z,80.14
2023-02-11T02:48:57.959Z,80.11
2023-02-11T02:51:47.596Z,80.03
2023-02-11T02:54:43.717Z,79.87
2023-02-11T02:57:30.385Z,79.69
2023-02-11T03:00:23.767Z,79.48
2023-02-11T03:03:09.685Z,79.68
2023-02-11T03:05:54.341Z,79.43
2023-02-11T03:08:33.823Z,79.28
2023-02-11T03:11:07.363Z,79.15
2023-02-11T03:13:40.937Z,79.25
2023-02-11T03:16:15.898Z,79.29
2023-02-11T03:18:53.629Z,79.18
2023-02-11T03:21:27.779Z,79.07
2023-02-11T03:24:05.264Z,79.32
2023-02-11T03:26:41.398Z,79.21
2023-02-11T03:29:19.494Z,79.31
2023-02-11T03:31:57.207Z,79.46
2023-02-11T03:34:37.086Z,79.33
2023-02-11T03:37:14.625Z,79.18
2023-02-11T03:39:51.830Z,78.99
2023-02-11T03:42:27.596Z,78.91
2023-02-11T03:45:05.232Z,78.99
2023-02-11T03:47:39.378Z,79.30
2023-02-11T03:50:13.619Z,79.01
2023-02-11T03:52:46.254Z,78.99
2023-02-11T03:55:21.143Z,79.38
2023-02-11T03:57:53.304Z,79.08
2023-02-11T04:00:32.552Z,79.17
2023-02-11T04:03:04.633Z,79.38
2023-02-11T04:05:36.589Z,79.30
2023-02-11T04:08:09.090Z,79.50
2023-02-11T04:10:40.804Z,79.74
2023-02-11T04:13:12.443Z,79.62
2023-02-11T04:15:44.256Z,79.80
2023-02-11T04:18:16.061Z,79.79
2023-02-11T04:20:47.705Z,79.84
2023-02-11T04:23:19.379Z,80.27
2023-02-11T04:25:51.689Z,80.59
2023-02-11T04:28:23.598Z,81.17
2023-02-11T04:30:55.510Z,81.52
2023-02-11T04:33:27.163Z,81.77
2023-02-11T04:35:58.858Z,81.68
2023-02-11T04:38:30.559Z,81.62
2023-02-11T04:41:02.272Z,81.83
2023-02-11T04:43:33.979Z,82.12
2023-02-11T04:46:05.886Z,82.73
2023-02-11T04:48:38.339Z,82.80
2023-02-11T04:51:10.173Z,82.71
2023-02-11T04:53:42.348Z,82.93
2023-02-11T04:56:14.023Z,83.05
2023-02-11T04:58:45.706Z,83.17
2023-02-11T05:01:18.502Z,83.63
2023-02-11T05:03:48.725Z,83.86
2023-02-11T05:06:20.631Z,84.02
2023-02-11T05:08:52.695Z,84.03
2023-02-11T05:11:26.283Z,84.38
2023-02-11T05:13:58.347Z,84.68
2023-02-11T05:16:30.253Z,84.66
2023-02-11T05:19:02.202Z,85.39
2023-02-11T05:21:33.951Z,85.29
2023-02-11T05:24:08.037Z,85.62
2023-02-11T05:26:39.696Z,85.99
2023-02-11T05:29:11.500Z,85.80
2023-02-11T05:31:43.214Z,85.62
2023-02-11T05:34:14.882Z,85.60
2023-02-11T05:36:46.638Z,86.09
2023-02-11T05:39:18.347Z,86.10
2023-02-11T05:41:50.225Z,85.91
2023-02-11T05:44:21.924Z,85.99
2023-02-11T05:46:53.781Z,86.15
2023-02-11T05:49:25.552Z,86.09
2023-02-11T05:51:57.274Z,86.13
2023-02-11T05:54:29.080Z,85.88
2023-02-11T05:57:00.917Z,85.70
2023-02-11T05:59:32.693Z,85.78
2023-02-11T06:02:04.413Z,86.47
2023-02-11T06:04:36.511Z,86.47
2023-02-11T06:07:08.491Z,87.15
2023-02-11T06:09:40.543Z,87.00
2023-02-11T06:12:12.301Z,87.07
2023-02-11T06:14:44.268Z,87.44
2023-02-11T06:17:16.107Z,87.46
2023-02-11T06:19:47.908Z,87.88
2023-02-11T06:22:19.886Z,88.37
2023-02-11T06:25:01.237Z,88.62
2023-02-11T06:27:33.891Z,88.74
2023-02-11T06:30:06.610Z,89.34
2023-02-11T06:32:44.338Z,89.45
2023-02-11T06:35:17.333Z,89.76
2023-02-11T06:37:49.711Z,90.62
2023-02-11T06:40:22.049Z,91.43
2023-02-11T06:42:53.931Z,91.30
2023-02-11T06:45:25.822Z,91.14
2023-02-11T06:47:57.444Z,91.97
2023-02-11T06:50:29.304Z,92.89
2023-02-11T06:53:03.135Z,93.29
2023-02-11T06:55:37.278Z,93.54
2023-02-11T06:58:09.013Z,93.91
2023-02-11T07:00:41.168Z,94.14
2023-02-11T07:03:13.373Z,93.71
2023-02-11T07:05:46.713Z,93.86
2023-02-11T07:08:18.450Z,94.29
2023-02-11T07:10:50.249Z,94.41
2023-02-11T07:13:21.956Z,94.75
2023-02-11T07:15:53.793Z,94.89
2023-02-11T07:18:25.645Z,94.93
2023-02-11T07:20:57.459Z,95.17
2023-02-11T07:23:29.423Z,95.25
2023-02-11T07:26:03.082Z,95.45
2023-02-11T07:28:35.517Z,94.87
2023-02-11T07:31:11.209Z,94.56
2023-02-11T07:33:43.905Z,94.61
2023-02-11T07:36:17.048Z,94.57
2023-02-11T07:38:49.218Z,94.36
2023-02-11T07:41:23.455Z,94.56
2023-02-11T07:43:55.684Z,94.33
2023-02-11T07:46:28.498Z,94.20
2023-02-11T07:49:00.353Z,94.19
2023-02-11T07:51:32.922Z,94.21
2023-02-11T07:54:04.851Z,93.88
2023-02-11T07:56:36.584Z,94.15
2023-02-11T07:59:08.227Z,94.05
2023-02-11T08:01:40.136Z,94.39
2023-02-11T08:04:12.161Z,94.81
2023-02-11T08:06:45.076Z,95.01
2023-02-11T08:09:18.081Z,95.11
2023-02-11T08:11:49.878Z,95.63
2023-02-11T08:14:21.561Z,96.01
2023-02-11T08:16:53.386Z,96.35
2023-02-11T08:19:25.192Z,97.09
2023-02-11T08:21:59.982Z,97.28
2023-02-11T08:24:31.658Z,97.55
2023-02-11T08:27:03.424Z,97.16
2023-02-11T08:29:35.722Z,96.86
2023-02-11T08:32:07.478Z,96.73
2023-02-11T08:34:39.201Z,96.64
2023-02-11T08:37:11.386Z,96.44
2023-02-11T08:39:43.041Z,95.76
2023-02-11T08:42:15.319Z,95.65
2023-02-11T08:44:47.012Z,95.55
2023-02-11T08:47:18.673Z,95.63
2023-02-11T08:49:50.369Z,95.74
2023-02-11T08:52:22.392Z,95.57
2023-02-11T08:54:54.270Z,95.32
2023-02-11T08:57:25.995Z,95.53
2023-02-11T08:59:58.362Z,95.78
2023-02-11T09:02:30.177Z,95.90
2023-02-11T09:05:01.980Z,95.30
2023-02-11T09:07:33.671Z,95.00
2023-02-11T09:10:06.325Z,95.46
2023-02-11T09:12:36.505Z,95.46
2023-02-11T09:15:09.698Z,95.60
2023-02-11T09:17:41.765Z,95.85
2023-02-11T09:20:13.946Z,96.18
2023-02-11T09:22:47.446Z,96.57
2023-02-11T09:25:19.537Z,96.80
2023-02-11T09:27:52.213Z,96.78
2023-02-11T09:30:22.496Z,96.98
2023-02-11T09:32:54.422Z,96.77
2023-02-11T09:35:26.062Z,96.72
2023-02-11T09:37:57.865Z,96.64
2023-02-11T09:40:29.593Z,96.16
2023-02-11T09:43:08.814Z,96.43
2023-02-11T09:45:40.657Z,96.52
2023-02-11T09:48:18.871Z,96.62
2023-02-11T09:50:57.073Z,96.24
2023-02-11T09:53:30.590Z,96.39
2023-02-11T09:56:06.028Z,97.35
2023-02-11T09:58:40.872Z,95.65
2023-02-11T10:01:29.060Z,95.73
2023-02-11T10:04:08.324Z,95.54
2023-02-11T10:06:46.564Z,95.85
2023-02-11T10:09:35.332Z,95.85
2023-02-11T10:12:18.839Z,95.67
2023-02-11T10:15:15.924Z,95.61
2023-02-11T10:18:02.721Z,95.60
2023-02-11T10:20:38.968Z,95.61
2023-02-11T10:23:17.728Z,95.71
2023-02-11T10:25:54.404Z,95.47
2023-02-11T10:28:30.827Z,95.89
2023-02-11T10:31:06.262Z,96.11
2023-02-11T10:33:45.605Z,96.24
2023-02-11T10:36:19.618Z,96.59
2023-02-11T10:38:51.335Z,97.37
2023-02-11T10:41:29.170Z,97.88
2023-02-11T10:44:01.662Z,98.23
2023-02-11T10:46:37.776Z,98.49
2023-02-11T10:49:09.660Z,98.68
2023-02-11T10:51:41.310Z,98.78
2023-02-11T10:54:21.225Z,98.75
2023-02-11T10:57:00.352Z,99.12
2023-02-11T10:59:34.723Z,99.47
2023-02-11T11:02:20.842Z,99.74
2023-02-11T11:04:59.576Z,99.69
2023-02-11T11:07:34.029Z,99.71
2023-02-11T11:10:08.462Z,99.90
2023-02-11T11:12:50.383Z,99.97
2023-02-11T11:15:25.206Z,100.00
2023-02-11T11:18:23.556Z,100.00
2023-02-11T11:21:01.832Z,100.00
2023-02-11T11:23:35.802Z,99.95
2023-02-11T11:26:11.197Z,100.00
2023-02-11T11:28:51.525Z,100.00
2023-02-11T11:31:27.062Z,100.00
2023-02-11T11:34:01.990Z,100.00
2023-02-11T11:36:40.175Z,100.00
2023-02-11T11:39:22.906Z,100.00
2023-02-11T11:42:00.671Z,100.00
2023-02-11T11:44:34.485Z,100.00
2023-02-11T11:47:30.407Z,100.00
2023-02-11T11:50:20.985Z,100.00
2023-02-11T11:52:57.933Z,100.00
2023-02-11T11:55:33.989Z,100.00
2023-02-11T11:58:07.006Z,100.00
2023-02-11T12:00:47.035Z,100.00
2023-02-11T12:03:57.503Z,100.00
2023-02-11T12:06:39.059Z,100.00
2023-02-11T12:09:22.765Z,100.00
2023-02-11T12:12:16.262Z,100.00
2023-02-11T12:14:58.641Z,100.00
2023-02-11T12:17:43.632Z,100.00
2023-02-11T12:20:23.717Z,100.00
2023-02-11T12:23:09.437Z,100.00
2023-02-11T12:25:48.343Z,100.00
2023-02-11T12:28:30.692Z,100.00
2023-02-11T12:31:14.032Z,100.00
2023-02-11T12:34:07.585Z,100.00
2023-02-11T12:36:55.191Z,100.00
2023-02-11T12:39:41.200Z,100.00
2023-02-11T12:42:51.886Z,100.00
2023-02-11T12:45:39.658Z,100.00
2023-02-11T12:48:35.876Z,100.00
2023-02-11T12:51:15.397Z,100.00
2023-02-11T12:54:15.484Z,100.00
2023-02-11T12:56:53.346Z,100.00
2023-02-11T12:59:35.838Z,100.00
2023-02-11T13:02:19.836Z,100.00
2023-02-11T13:04:56.593Z,100.00
2023-02-11T13:07:32.154Z,100.00
2023-02-11T13:10:26.025Z,100.00
2023-02-11T13:13:18.510Z,100.00
2023-02-11T13:15:55.807Z,100.00
2023-02-11T13:18:36.977Z,100.00
2023-02-11T13:21:26.767Z,100.00
2023-02-11T13:24:05.432Z,100.00
2023-02-11T13:26:46.789Z,100.00
2023-02-11T13:29:28.816Z,100.00
2023-02-11T13:32:09.570Z,100.00
2023-02-11T13:35:00.778Z,100.00
2023-02-11T13:37:37.259Z,100.00
2023-02-11T13:40:23.997Z,100.00
2023-02-11T13:42:58.104Z,100.00
2023-02-11T13:45:35.417Z,100.00
2023-02-11T13:48:15.923Z,100.00
2023-02-11T13:50:52.206Z,100.00
2023-02-11T13:53:24.752Z,100.00
2023-02-11T13:56:08.760Z,100.00
2023-02-11T13:58:50.021Z,100.00
2023-02-11T14:01:42.426Z,100.00
2023-02-11T14:04:44.046Z,100.00
2023-02-11T14:07:47.106Z,100.00
2023-02-11T14:10:52.868Z,100.00
2023-02-11T14:13:28.172Z,100.00
2023-02-11T14:16:13.972Z,100.00
2023-02-11T14:19:05.995Z,100.00
2023-02-11T14:21:42.662Z,100.00
2023-02-11T14:24:49.235Z,100.00
2023-02-11T14:27:28.171Z,100.00
2023-02-11T14:30:21.380Z,100.00
2023-02-11T14:33:11.513Z,100.00
2023-02-11T14:35:52.627Z,100.00
2023-02-11T14:38:34.203Z,100.00
2023-02-11T14:41:11.873Z,100.00
2023-02-11T14:43:47.880Z,100.00
2023-02-11T14:46:22.134Z,100.00
2023-02-11T14:48:57.468Z,100.00
2023-02-11T14:51:32.221Z,100.00
2023-02-11T14:54:12.871Z,100.00
2023-02-11T14:56:46.677Z,100.00
2023-02-11T14:59:21.407Z,100.00
2023-02-11T15:01:55.449Z,100.00
2023-02-11T15:04:29.688Z,100.00
2023-02-11T15:07:07.081Z,100.00
2023-02-11T15:09:45.228Z,100.00
2023-02-11T15:12:23.603Z,100.00
2023-02-11T15:14:57.730Z,100.00
2023-02-11T15:17:33.102Z,100.00
2023-02-11T15:20:05.814Z,100.00
2023-02-11T15:22:37.323Z,100.00
2023-02-11T15:25:16.707Z,100.00
2023-02-11T15:27:50.758Z,100.00
2023-02-11T15:30:30.916Z,100.00
2023-02-11T15:33:05.814Z,100.00
2023-02-11T15:35:42.356Z,100.00
2023-02-11T15:38:15.394Z,100.00
2023-02-11T15:40:52.858Z,100.00
2023-02-11T15:43:25.355Z,100.00
2023-02-11T15:46:02.717Z,100.00
2023-02-11T15:48:42.467Z,100.00
2023-02-11T15:51:21.923Z,100.00
2023-02-11T15:53:58.432Z,100.00
2023-02-11T15:56:34.330Z,100.00
2023-02-11T15:59:16.948Z,100.00
2023-02-11T16:01:50.319Z,100.00
2023-02-11T16:04:24.971Z,100.00
2023-02-11T16:06:57.937Z,100.00
2023-02-11T16:09:34.437Z,100.00
2023-02-11T16:12:22.120Z,100.00
2023-02-11T16:14:53.857Z,100.00
2023-02-11T16:17:28.745Z,100.00
2023-02-11T16:20:00.741Z,100.00
2023-02-11T16:22:38.021Z,100.00
2023-02-11T16:25:19.137Z,100.00
2023-02-11T16:27:53.298Z,100.00
2023-02-11T16:30:33.376Z,100.00
2023-02-11T16:33:05.505Z,100.00
2023-02-11T16:35:38.212Z,100.00
2023-02-11T16:38:08.705Z,100.00
2023-02-11T16:40:42.094Z,100.00
2023-02-11T16:43:13.966Z,100.00
2023-02-11T16:45:45.963Z,100.00
2023-02-11T16:48:20.959Z,100.00
2023-02-11T16:50:53.732Z,100.00
2023-02-11T16:53:26.777Z,100.00
2023-02-11T16:55:58.476Z,100.00
2023-02-11T16:58:30.406Z,100.00
2023-02-11T17:01:02.323Z,100.00
2023-02-11T17:03:37.462Z,100.00
2023-02-11T17:06:10.573Z,100.00
2023-02-11T17:08:42.618Z,100.00
2023-02-11T17:11:16.627Z,100.00
2023-02-11T17:13:48.322Z,100.00
2023-02-11T17:16:22.622Z,100.00
2023-02-11T17:18:54.763Z,100.00
2023-02-11T17:21:29.529Z,100.00
2023-02-11T17:24:01.783Z,100.00
2023-02-11T17:26:35.286Z,100.00
2023-02-11T17:29:08.972Z,100.00
2023-02-11T17:31:41.410Z,100.00
2023-02-11T17:34:13.745Z,100.00
2023-02-11T17:36:45.583Z,100.00
2023-02-11T17:39:19.244Z,100.00
2023-02-11T17:41:51.479Z,100.00
2023-02-11T17:44:23.219Z,100.00
2023-02-11T17:46:54.926Z,100.00
2023-02-11T17:49:27.379Z,100.00
2023-02-11T17:51:59.121Z,100.00
2023-02-11T17:54:32.394Z,100.00
2023-02-11T17:57:04.350Z,100.00
2023-02-11T17:59:36.238Z,100.00
2023-02-11T18:02:09.084Z,100.00
2023-02-11T18:04:41.466Z,100.00
2023-02-11T18:07:13.351Z,100.00
2023-02-11T18:09:45.798Z,100.00
2023-02-11T18:12:24.876Z,100.00
2023-02-11T18:14:58.253Z,100.00
2023-02-11T18:17:30.092Z,100.00
2023-02-11T18:20:03.464Z,100.00
2023-02-11T18:22:39.236Z,100.00
2023-02-11T18:25:14.659Z,100.00
2023-02-11T18:27:46.415Z,100.00
2023-02-11T18:30:20.537Z,100.00
2023-02-11T18:32:56.225Z,100.00
2023-02-11T18:35:28.265Z,100.00
2023-02-11T18:38:00.258Z,100.00
2023-02-11T18:40:32.221Z,100.00
2023-02-11T18:43:04.574Z,100.00
2023-02-11T18:45:36.537Z,100.00
2023-02-11T18:48:08.471Z,100.00
2023-02-11T18:50:40.817Z,100.00
2023-02-11T18:53:13.104Z,100.00
2023-02-11T18:55:46.264Z,100.00
2023-02-11T18:58:18.016Z,100.00
2023-02-11T19:00:50.528Z,100.00
2023-02-11T19:03:22.206Z,100.00
2023-02-11T19:05:54.599Z,100.00
2023-02-11T19:08:26.340Z,100.00
2023-02-11T19:10:58.323Z,100.00
2023-02-11T19:13:31.277Z,100.00
2023-02-11T19:16:05.651Z,100.00
2023-02-11T19:18:38.573Z,100.00
2023-02-11T19:21:12.203Z,100.00
2023-02-11T19:23:44.015Z,100.00
2023-02-11T19:26:15.725Z,100.00
2023-02-11T19:28:47.534Z,100.00
2023-02-11T19:31:19.398Z,100.00
2023-02-11T19:33:51.581Z,100.00
2023-02-11T19:36:23.353Z,100.00
2023-02-11T19:38:55.335Z,100.00
2023-02-11T19:41:27.357Z,100.00
2023-02-11T19:43:59.398Z,100.00
2023-02-11T19:46:36.680Z,100.00
2023-02-11T19:49:09.844Z,100.00
2023-02-11T19:51:41.547Z,100.00
2023-02-11T19:54:13.674Z,100.00
2023-02-11T19:56:45.797Z,100.00
2023-02-11T19:59:17.966Z,100.00
2023-02-11T20:01:50.592Z,100.00
2023-02-11T20:04:24.575Z,100.00
2023-02-11T20:06:56.373Z,100.00
2023-02-11T20:09:28.965Z,100.00
2023-02-11T20:12:01.089Z,100.00
2023-02-11T20:14:33.513Z,100.00
2023-02-11T20:17:05.362Z,100.00
2023-02-11T20:19:37.736Z,100.00
2023-02-11T20:22:09.719Z,100.00
2023-02-11T20:24:41.703Z,100.00
2023-02-11T20:27:13.729Z,100.00
2023-02-11T20:29:45.522Z,100.00
2023-02-11T20:32:17.527Z,100.00
2023-02-11T20:34:49.654Z,100.00
2023-02-11T20:37:21.448Z,100.00
2023-02-11T20:39:53.223Z,100.00
2023-02-11T20:42:25.480Z,100.00
2023-02-11T20:45:02.662Z,100.00
2023-02-11T20:47:34.990Z,100.00
2023-02-11T20:50:07.930Z,100.00
2023-02-11T20:52:40.057Z,100.00
2023-02-11T20:55:11.983Z,100.00
2023-02-11T20:57:44.008Z,100.00
2023-02-11T21:00:17.228Z,100.00
2023-02-11T21:02:51.273Z,100.00
2023-02-11T21:05:23.291Z,100.00
2023-02-11T21:07:55.112Z,100.00
2023-02-11T21:10:27.589Z,100.00
2023-02-11T21:13:00.460Z,100.00
2023-02-11T21:15:33.012Z,100.00
2023-02-11T21:18:04.891Z,100.00
2023-02-11T21:20:36.654Z,100.00
2023-02-11T21:23:08.435Z,100.00
2023-02-11T21:25:40.270Z,100.00
2023-02-11T21:28:12.307Z,100.00
2023-02-11T21:30:44.514Z,100.00
2023-02-11T21:33:16.771Z,100.00
2023-02-11T21:35:48.846Z,100.00
2023-02-11T21:38:20.692Z,100.00
2023-02-11T21:40:52.376Z,100.00
2023-02-11T21:43:24.972Z,100.00
2023-02-11T21:45:57.143Z,100.00
2023-02-11T21:48:29.652Z,100.00
2023-02-11T21:51:04.896Z,100.00
2023-02-11T21:53:36.847Z,100.00
2023-02-11T21:56:11.198Z,100.00
2023-02-11T21:58:43.256Z,100.00
2023-02-11T22:01:17.612Z,100.00
2023-02-11T22:03:52.954Z,100.00
2023-02-11T22:06:27.097Z,100.00
2023-02-11T22:08:59.511Z,100.00
2023-02-11T22:11:32.405Z,100.00
2023-02-11T22:14:04.922Z,100.00
2023-02-11T22:16:37.181Z,100.00
2023-02-11T22:19:10.078Z,100.00
2023-02-11T22:21:43.241Z,100.00
2023-02-11T22:24:15.005Z,100.00
2023-02-11T22:26:46.860Z,100.00
2023-02-11T22:29:18.790Z,100.00
2023-02-11T22:31:50.949Z,100.00
2023-02-11T22:34:22.719Z,100.00
2023-02-11T22:36:54.494Z,100.00
2023-02-11T22:39:26.387Z,100.00
2023-02-11T22:41:58.171Z,100.00
2023-02-11T22:44:30.049Z,100.00
2023-02-11T22:47:01.892Z,100.00
2023-02-11T22:49:33.664Z,100.00
2023-02-11T22:52:05.763Z,100.00
2023-02-11T22:54:37.538Z,100.00
2023-02-11T22:57:09.401Z,100.00
2023-02-11T22:59:41.164Z,100.00
2023-02-11T23:02:12.982Z,100.00
2023-02-11T23:04:44.762Z,100.00
2023-02-11T23:07:17.003Z,100.00
2023-02-11T23:09:48.939Z,100.00
2023-02-11T23:12:20.668Z,100.00
2023-02-11T23:14:54.580Z,100.00
2023-02-11T23:17:28.781Z,100.00
2023-02-11T23:20:00.521Z,100.00
2023-02-11T23:22:32.662Z,100.00
2023-02-11T23:25:04.880Z,100.00
2023-02-11T23:27:36.663Z,100.00
2023-02-11T23:30:10.029Z,100.00
2023-02-11T23:32:41.888Z,100.00
2023-02-11T23:35:21.701Z,100.00
2023-02-11T23:37:54.752Z,100.00
2023-02-11T23:40:27.091Z,100.00
2023-02-11T23:42:58.760Z,100.00
2023-02-11T23:45:31.274Z,100.00
2023-02-11T23:48:03.350Z,100.00
2023-02-11T23:50:35.738Z,100.00
2023-02-11T23:53:07.483Z,100.00
2023-02-11T23:55:43.003Z,100.00
2023-02-11T23:58:16.248Z,100.00
